createdAt,value
2019-03-08T00:09:54.463Z,3.27
2019-03-08T00:20:55.365Z,3.26
2019-03-08T00:31:59.514Z,3.26
2019-03-08T00:42:59.539Z,3.26
2019-03-08T00:54:00.610Z,3.26
2019-03-08T01:05:00.367Z,3.25
2019-03-08T01:15:59.649Z,3.25
2019-03-08T01:27:01.499Z,3.25
2019-03-08T01:38:01.747Z,3.25
2019-03-08T01:49:04.066Z,3.24
2019-03-08T02:00:06.295Z,3.23
2019-03-08T02:11:07.372Z,3.23
2019-03-08T02:22:05.630Z,3.23
2019-03-08T02:33:04.910Z,3.22
2019-03-08T02:44:05.463Z,3.22
2019-03-08T02:55:06.929Z,3.21
2019-03-08T03:06:11.301Z,3.21
2019-03-08T03:17:09.137Z,3.21
2019-03-08T03:28:10.267Z,3.21
2019-03-08T03:39:14.892Z,3.21
2019-03-08T03:50:16.068Z,3.20
2019-03-08T04:01:16.177Z,3.19
2019-03-08T04:12:17.275Z,3.19
2019-03-08T04:23:18.831Z,3.19
2019-03-08T04:34:21.174Z,3.19
2019-03-08T04:45:22.506Z,3.18
2019-03-08T04:56:24.422Z,3.18
2019-03-08T05:07:29.288Z,3.18
2019-03-08T05:18:32.908Z,3.18
2019-03-08T05:29:32.253Z,3.18
2019-03-08T05:40:36.380Z,3.18
2019-03-08T05:51:34.268Z,3.18
2019-03-08T06:02:33.665Z,3.19
2019-03-08T06:13:36.665Z,3.21
2019-03-08T06:24:37.503Z,3.21
2019-03-08T06:35:42.497Z,3.20
2019-03-08T06:46:44.937Z,3.20
2019-03-08T06:57:49.677Z,3.20
2019-03-08T07:08:53.385Z,3.21
2019-03-08T07:19:55.193Z,3.20
2019-03-08T07:30:58.143Z,3.24
2019-03-08T07:41:58.073Z,3.28
2019-03-08T07:52:59.383Z,3.28
2019-03-08T08:04:02.885Z,3.28
2019-03-08T08:15:07.512Z,3.28
2019-03-08T08:26:08.559Z,3.34
2019-03-08T08:37:10.503Z,3.37
2019-03-08T08:48:09.851Z,3.40
2019-03-08T08:59:10.785Z,3.40
2019-03-08T09:10:10.007Z,3.39
2019-03-08T09:21:10.554Z,3.38
2019-03-08T09:32:09.341Z,3.39
2019-03-08T09:43:08.263Z,3.39
2019-03-08T09:54:04.640Z,3.39
2019-03-08T10:05:04.098Z,3.39
2019-03-08T10:16:05.252Z,3.38
2019-03-08T10:27:02.746Z,3.40
2019-03-08T10:38:05.417Z,3.40
2019-03-08T10:49:07.929Z,3.39
2019-03-08T11:00:08.849Z,3.40
2019-03-08T11:11:12.573Z,3.41
2019-03-08T11:22:11.889Z,3.39
2019-03-08T11:33:11.140Z,3.39
2019-03-08T11:44:06.849Z,3.39
2019-03-08T11:54:59.862Z,3.39
2019-03-08T12:06:03.880Z,3.39
2019-03-08T12:17:03.368Z,3.39
2019-03-08T12:28:05.133Z,3.39
2019-03-08T12:39:06.083Z,3.39
2019-03-08T12:50:06.739Z,3.39
2019-03-08T13:01:00.547Z,3.39
2019-03-08T13:12:00.517Z,3.39
2019-03-08T13:23:03.985Z,3.40
2019-03-08T13:34:05.210Z,3.39
2019-03-08T13:45:05.169Z,3.40
2019-03-08T13:56:09.256Z,3.40
2019-03-08T14:07:00.881Z,3.39
2019-03-08T14:17:58.759Z,3.39
2019-03-08T14:29:00.468Z,3.39
2019-03-08T14:39:57.994Z,3.39
2019-03-08T14:50:58.755Z,3.39
2019-03-08T15:01:58.792Z,3.39
2019-03-08T15:12:53.291Z,3.42
2019-03-08T15:23:54.484Z,3.42
2019-03-08T15:34:49.710Z,3.39
2019-03-08T15:45:45.983Z,3.39
2019-03-08T15:56:46.495Z,3.40
2019-03-08T16:07:43.804Z,3.40
2019-03-08T16:18:40.231Z,3.39
2019-03-08T16:29:44.009Z,3.38
2019-03-08T16:40:44.984Z,3.37
2019-03-08T16:51:43.384Z,3.37
2019-03-08T17:02:44.488Z,3.37
2019-03-08T17:13:43.581Z,3.36
2019-03-08T17:24:40.511Z,3.36
2019-03-08T17:35:38.861Z,3.35
2019-03-08T17:46:35.908Z,3.34
2019-03-08T17:57:35.590Z,3.34
2019-03-08T18:08:34.473Z,3.34
2019-03-08T18:19:32.043Z,3.34
2019-03-08T18:30:37.187Z,3.34
2019-03-08T18:41:40.525Z,3.33
2019-03-08T18:52:42.040Z,3.33
2019-03-08T19:03:45.394Z,3.33
2019-03-08T19:14:47.416Z,3.33
2019-03-08T19:25:42.771Z,3.32
2019-03-08T19:36:38.953Z,3.32
2019-03-08T19:47:37.854Z,3.31
2019-03-08T19:58:34.458Z,3.31
2019-03-08T20:09:33.907Z,3.30
2019-03-08T20:20:31.855Z,3.30
2019-03-08T20:31:31.551Z,3.30
2019-03-08T20:42:31.891Z,3.30
2019-03-08T20:53:27.068Z,3.29
2019-03-08T21:04:23.254Z,3.29
2019-03-08T21:15:25.390Z,3.29
2019-03-08T21:26:21.668Z,3.28
2019-03-08T21:37:24.475Z,3.28
2019-03-08T21:48:23.411Z,3.28
2019-03-08T21:59:21.281Z,3.28
2019-03-08T22:10:25.121Z,3.27
2019-03-08T22:21:25.408Z,3.27
2019-03-08T22:32:29.480Z,3.27
2019-03-08T22:43:31.233Z,3.26
2019-03-08T22:54:29.108Z,3.26
2019-03-08T23:05:29.493Z,3.26
2019-03-08T23:16:32.291Z,3.26
2019-03-08T23:27:36.862Z,3.26
2019-03-08T23:38:40.722Z,3.25
2019-03-08T23:49:38.511Z,3.25
